createdAt,value
2019-03-13T07:15:37.052Z,60.30
2019-03-13T07:16:37.006Z,60.40
2019-03-13T07:17:36.997Z,60.61
2019-03-13T07:18:36.984Z,60.30
2019-03-13T07:19:36.995Z,60.19
2019-03-13T07:20:36.963Z,63.35
2019-03-13T07:21:36.950Z,60.14
2019-03-13T07:22:36.940Z,60.35
2019-03-13T07:23:36.930Z,59.63
2019-03-13T07:24:36.957Z,59.63
2019-03-13T07:27:32.605Z,61.05
2019-03-13T07:28:32.593Z,57.54
2019-03-13T07:29:32.606Z,57.20
2019-03-13T07:30:32.574Z,55.87
2019-03-13T07:31:32.565Z,56.07
2019-03-13T07:32:32.555Z,56.10
2019-03-13T07:33:32.555Z,56.20
2019-03-13T07:34:32.579Z,56.20
2019-03-13T07:35:32.522Z,56.13
2019-03-13T07:36:32.524Z,56.43
2019-03-13T07:37:32.501Z,56.26
2019-03-13T07:38:32.493Z,57.49
2019-03-13T07:39:32.498Z,56.28
2019-03-13T07:40:32.470Z,57.31
2019-03-13T07:41:35.508Z,57.54
2019-03-13T07:42:32.448Z,57.51
2019-03-13T07:43:32.440Z,58.26
2019-03-13T07:44:32.456Z,58.67
2019-03-13T07:45:32.463Z,59.01
2019-03-13T07:46:32.441Z,58.91
2019-03-13T07:47:32.400Z,58.59
2019-03-13T07:48:32.388Z,59.01
2019-03-13T07:49:32.400Z,59.11
2019-03-13T07:50:32.397Z,59.01
2019-03-13T07:51:32.400Z,58.91
2019-03-13T07:52:32.869Z,59.52
2019-03-13T07:53:32.342Z,60.37
2019-03-13T07:54:32.351Z,60.47
2019-03-13T07:55:32.325Z,60.14
2019-03-13T07:56:32.309Z,60.35
2019-03-13T07:57:32.306Z,60.24
2019-03-13T07:58:32.286Z,59.93
2019-03-13T07:59:32.385Z,59.39
2019-03-13T08:00:32.267Z,59.08
2019-03-13T08:01:32.274Z,59.11
2019-03-13T08:02:32.243Z,60.45
2019-03-13T08:03:32.231Z,60.27
2019-03-13T08:04:32.239Z,60.06
2019-03-13T08:05:32.216Z,60.78
2019-03-13T08:06:32.208Z,60.65
2019-03-13T08:07:32.193Z,59.83
2019-03-13T08:08:32.181Z,59.59
2019-03-13T08:09:32.187Z,60.14
2019-03-13T08:10:32.169Z,60.01
2019-03-13T08:11:32.172Z,60.01
2019-03-13T08:12:32.141Z,60.14
2019-03-13T08:13:32.134Z,60.55
2019-03-13T08:14:32.146Z,60.45
2019-03-13T08:15:32.115Z,60.17
2019-03-13T08:16:32.095Z,60.03
2019-03-13T08:17:32.086Z,61.17
2019-03-13T08:18:32.079Z,60.75
2019-03-13T08:19:32.083Z,60.75
2019-03-13T08:20:32.058Z,61.51
2019-03-13T08:21:32.049Z,61.30
2019-03-13T08:22:32.038Z,61.19
2019-03-13T08:23:32.024Z,61.91
2019-03-13T08:24:32.053Z,61.91
2019-03-13T08:25:32.003Z,62.12
2019-03-13T08:26:31.993Z,62.02
2019-03-13T08:27:31.983Z,62.02
2019-03-13T08:28:31.974Z,62.02
2019-03-13T08:29:32.228Z,62.23
2019-03-13T08:30:32.010Z,62.40
2019-03-13T08:31:31.966Z,62.33
2019-03-13T08:32:31.930Z,62.19
2019-03-13T08:33:31.947Z,62.23
2019-03-13T08:34:31.940Z,62.74
2019-03-13T08:35:31.905Z,63.05
2019-03-13T08:36:31.895Z,63.35
2019-03-13T08:37:31.879Z,62.74
2019-03-13T08:38:31.881Z,62.95
2019-03-13T08:39:31.905Z,63.15
2019-03-13T08:40:31.849Z,63.05
2019-03-13T08:41:31.853Z,62.84
2019-03-13T08:42:31.828Z,63.18
2019-03-13T08:43:31.816Z,63.15
2019-03-13T08:44:31.810Z,63.05
2019-03-13T08:45:31.826Z,62.84
2019-03-13T08:46:31.791Z,62.63
2019-03-13T08:47:31.809Z,62.95
2019-03-13T08:48:31.777Z,62.84
2019-03-13T08:49:31.781Z,62.60
2019-03-13T08:50:31.768Z,63.12
2019-03-13T08:51:31.755Z,62.84
2019-03-13T08:52:31.738Z,62.71
2019-03-13T08:53:31.756Z,63.02
2019-03-13T08:54:31.709Z,62.74
2019-03-13T08:55:31.754Z,62.53
2019-03-13T08:56:31.688Z,62.63
2019-03-13T08:57:31.681Z,62.74
2019-03-13T08:58:31.665Z,62.84
2019-03-13T08:59:31.659Z,62.63
2019-03-13T09:00:31.683Z,62.95
2019-03-13T09:01:31.688Z,62.74
2019-03-13T09:02:31.755Z,62.84
2019-03-13T09:03:31.622Z,62.95
2019-03-13T09:04:31.602Z,63.05
2019-03-13T09:05:31.618Z,63.25
2019-03-13T09:06:31.583Z,63.56
2019-03-13T09:07:31.586Z,63.90
2019-03-13T09:08:31.565Z,63.35
2019-03-13T09:09:31.551Z,63.46
2019-03-13T09:10:31.613Z,63.35
2019-03-13T09:11:31.537Z,63.05
2019-03-13T09:12:31.521Z,63.35
2019-03-13T09:13:31.516Z,63.35
2019-03-13T09:14:31.505Z,63.46
2019-03-13T09:15:31.559Z,63.59
2019-03-13T09:16:31.580Z,63.56
2019-03-13T09:17:31.499Z,63.46
2019-03-13T09:18:31.459Z,63.25
2019-03-13T09:19:31.450Z,63.46
2019-03-13T09:20:31.469Z,63.46
2019-03-13T09:21:33.634Z,63.25
2019-03-13T09:22:31.417Z,63.56
2019-03-13T09:23:31.409Z,63.46
2019-03-13T09:24:31.398Z,63.35
2019-03-13T09:25:31.418Z,63.56
2019-03-13T09:26:31.390Z,63.46
2019-03-13T09:27:31.368Z,63.35
2019-03-13T09:28:31.357Z,63.87
2019-03-13T09:29:31.469Z,64.62
2019-03-13T09:30:31.356Z,64.11
2019-03-13T09:31:31.327Z,64.07
2019-03-13T09:32:31.317Z,63.97
2019-03-13T09:33:31.311Z,64.28
2019-03-13T09:34:31.294Z,64.11
2019-03-13T09:35:31.308Z,64.18
2019-03-13T09:36:31.281Z,63.87
2019-03-13T09:37:31.268Z,63.76
2019-03-13T09:38:31.255Z,63.97
2019-03-13T09:39:31.250Z,63.87
2019-03-13T09:40:31.255Z,63.67
2019-03-13T09:41:31.224Z,63.64
2019-03-13T09:42:31.221Z,63.64
2019-03-13T09:43:31.207Z,64.18
2019-03-13T09:44:31.192Z,63.97
2019-03-13T09:45:31.315Z,63.76
2019-03-13T09:46:31.173Z,63.87
2019-03-13T09:47:31.166Z,63.67
2019-03-13T09:48:31.153Z,63.46
2019-03-13T09:49:31.159Z,63.32
2019-03-13T09:50:31.161Z,63.12
2019-03-13T09:51:31.124Z,62.60
2019-03-13T09:52:31.114Z,62.81
2019-03-13T09:53:31.113Z,63.12
2019-03-13T09:54:31.095Z,62.92
2019-03-13T09:55:31.104Z,62.92
2019-03-13T09:56:31.070Z,62.81
2019-03-13T09:57:31.063Z,62.71
2019-03-13T09:58:31.052Z,63.02
2019-03-13T09:59:42.670Z,62.71
2019-03-13T10:00:32.059Z,63.02
2019-03-13T10:01:31.019Z,62.92
2019-03-13T10:02:31.008Z,62.40
2019-03-13T10:03:31.061Z,62.40
2019-03-13T10:04:30.987Z,62.71
2019-03-13T10:05:31.004Z,62.88
2019-03-13T10:06:30.970Z,62.37
2019-03-13T10:07:30.962Z,62.48
2019-03-13T10:08:30.946Z,62.27
2019-03-13T10:09:30.941Z,62.16
2019-03-13T10:10:30.980Z,62.71
2019-03-13T10:11:30.918Z,62.60
2019-03-13T10:12:30.930Z,62.60
2019-03-13T10:13:30.896Z,62.71
2019-03-13T10:14:30.883Z,62.16
2019-03-13T10:15:30.891Z,62.06
2019-03-13T10:16:30.863Z,62.16
2019-03-13T10:17:30.853Z,61.96
2019-03-13T10:18:31.119Z,62.16
2019-03-13T10:19:30.832Z,62.06
2019-03-13T10:20:30.852Z,62.16
2019-03-13T10:21:30.810Z,62.48
2019-03-13T10:22:30.799Z,62.16
2019-03-13T10:23:31.335Z,62.37
2019-03-13T10:24:30.780Z,62.14
2019-03-13T10:25:30.778Z,62.27
2019-03-13T10:26:31.515Z,62.19
2019-03-13T10:27:30.747Z,62.06
2019-03-13T10:28:30.748Z,62.16
2019-03-13T10:29:31.241Z,62.37
2019-03-13T10:30:30.714Z,62.55
2019-03-13T10:31:30.723Z,62.16
2019-03-13T10:32:30.919Z,61.96
2019-03-13T10:33:31.341Z,61.96
2019-03-13T10:34:31.337Z,62.09
2019-03-13T10:35:30.664Z,62.60
2019-03-13T10:36:30.678Z,62.60
2019-03-13T10:37:30.660Z,62.60
2019-03-13T10:38:30.665Z,62.68
2019-03-13T10:39:30.627Z,62.81
2019-03-13T10:40:30.614Z,62.99
2019-03-13T10:41:30.620Z,63.64
2019-03-13T10:42:30.590Z,64.73
2019-03-13T10:43:30.585Z,65.25
2019-03-13T10:44:30.583Z,66.41
2019-03-13T10:45:30.556Z,67.00
2019-03-13T10:46:30.961Z,67.33
2019-03-13T10:47:30.533Z,67.54
2019-03-13T10:48:30.524Z,68.26
2019-03-13T10:49:30.656Z,68.19
2019-03-13T10:50:30.502Z,68.88
2019-03-13T10:51:30.511Z,69.53
2019-03-13T10:52:30.486Z,69.94
2019-03-13T10:53:30.547Z,70.97
2019-03-13T10:54:30.466Z,70.35
2019-03-13T10:55:30.458Z,69.42
2019-03-13T10:56:30.462Z,69.56
2019-03-13T10:57:30.447Z,69.42
2019-03-13T10:58:30.421Z,70.38
2019-03-13T10:59:30.420Z,70.48
2019-03-13T11:00:30.408Z,69.87
2019-03-13T11:01:30.407Z,70.07
2019-03-13T11:02:30.430Z,70.38
2019-03-13T11:03:30.370Z,70.35
2019-03-13T11:04:31.339Z,70.79
2019-03-13T11:05:30.348Z,70.76
2019-03-13T11:06:30.357Z,70.76
2019-03-13T11:07:30.323Z,70.45
2019-03-13T11:08:30.313Z,69.66
2019-03-13T11:09:30.306Z,70.90
2019-03-13T11:10:30.293Z,70.14
2019-03-13T11:11:30.300Z,70.45
2019-03-13T11:12:30.277Z,70.48
2019-03-13T11:13:30.260Z,69.84
2019-03-13T11:14:30.258Z,69.53
2019-03-13T11:15:30.240Z,69.84
2019-03-13T11:16:30.251Z,69.42
2019-03-13T11:17:30.222Z,69.73
2019-03-13T11:18:30.212Z,70.56
2019-03-13T11:19:30.206Z,69.12
2019-03-13T11:20:30.197Z,70.35
2019-03-13T11:21:30.203Z,70.56
2019-03-13T11:22:30.195Z,69.22
2019-03-13T11:23:30.176Z,69.22
2019-03-13T11:24:30.186Z,69.73
2019-03-13T11:25:30.253Z,68.91
2019-03-13T11:26:30.146Z,68.88
2019-03-13T11:27:30.114Z,67.78
2019-03-13T11:28:30.106Z,68.08
2019-03-13T11:29:30.220Z,67.98
2019-03-13T11:30:30.103Z,68.91
2019-03-13T11:31:30.095Z,68.91
2019-03-13T11:32:30.064Z,69.63
2019-03-13T11:33:30.249Z,68.60
2019-03-13T11:34:30.039Z,68.74
2019-03-13T11:35:30.029Z,68.40
2019-03-13T11:36:30.042Z,68.19
2019-03-13T11:37:30.010Z,68.94
2019-03-13T11:38:30.002Z,68.80
2019-03-13T11:39:29.988Z,69.25
2019-03-13T11:40:30.033Z,69.12
2019-03-13T11:41:29.988Z,69.12
2019-03-13T11:42:30.100Z,68.60
2019-03-13T11:43:29.974Z,67.88
2019-03-13T11:44:29.941Z,68.60
2019-03-13T11:45:30.215Z,69.12
2019-03-13T11:46:30.372Z,68.16
2019-03-13T11:47:41.668Z,68.08
2019-03-13T11:48:30.894Z,68.40
2019-03-13T11:49:29.890Z,67.54
2019-03-13T11:50:32.443Z,68.16
2019-03-13T11:51:29.887Z,67.85
2019-03-13T11:52:29.861Z,68.05
2019-03-13T11:53:29.843Z,68.37
2019-03-13T11:54:29.831Z,68.26
2019-03-13T11:55:29.833Z,68.05
2019-03-13T11:56:29.832Z,68.16
2019-03-13T11:57:29.797Z,68.05
2019-03-13T11:58:29.787Z,67.75
2019-03-13T11:59:29.856Z,68.67
2019-03-13T12:00:29.776Z,67.95
2019-03-13T12:01:29.787Z,67.95
2019-03-13T12:02:29.744Z,68.16
2019-03-13T12:03:29.731Z,67.65
2019-03-13T12:04:29.722Z,66.93
2019-03-13T12:05:29.738Z,67.44
2019-03-13T12:06:29.713Z,67.33
2019-03-13T12:07:29.733Z,67.33
2019-03-13T12:08:29.678Z,67.33
2019-03-13T12:09:29.668Z,67.03
2019-03-13T12:10:29.663Z,66.93
2019-03-13T12:11:29.647Z,66.20
2019-03-13T12:12:29.682Z,67.03
2019-03-13T12:13:29.647Z,67.23
2019-03-13T12:14:29.624Z,66.93
2019-03-13T12:15:29.608Z,67.03
2019-03-13T12:16:29.600Z,66.93
2019-03-13T12:17:29.642Z,66.93
2019-03-13T12:18:29.577Z,66.82
2019-03-13T12:19:29.568Z,67.65
2019-03-13T12:20:29.551Z,68.26
2019-03-13T12:21:29.541Z,68.26
2019-03-13T12:22:29.549Z,67.95
2019-03-13T12:23:29.519Z,68.26
2019-03-13T12:24:29.568Z,68.37
2019-03-13T12:25:29.502Z,67.54
2019-03-13T12:26:29.509Z,67.61
2019-03-13T12:27:29.497Z,66.79
2019-03-13T12:28:29.466Z,67.30
2019-03-13T12:29:29.458Z,66.69
2019-03-13T12:30:29.451Z,66.58
2019-03-13T12:31:29.437Z,66.38
2019-03-13T12:32:29.450Z,66.58
2019-03-13T12:33:29.420Z,66.79
2019-03-13T12:34:29.404Z,66.79
2019-03-13T12:35:29.392Z,67.00
2019-03-13T12:36:29.381Z,67.30
2019-03-13T12:37:29.393Z,67.30
2019-03-13T12:38:29.359Z,67.00
2019-03-13T12:39:29.365Z,66.96
2019-03-13T12:40:29.338Z,66.55
2019-03-13T12:41:29.329Z,66.55
2019-03-13T12:42:29.337Z,66.42
2019-03-13T12:43:29.312Z,66.14
2019-03-13T12:44:29.299Z,65.83
2019-03-13T12:45:29.286Z,66.04
2019-03-13T12:46:29.289Z,66.04
2019-03-13T12:47:29.286Z,65.73
2019-03-13T12:48:29.259Z,66.35
2019-03-13T12:49:29.253Z,66.66
2019-03-13T12:50:29.234Z,66.96
2019-03-13T12:51:29.235Z,67.07
2019-03-13T12:52:29.230Z,67.20
2019-03-13T12:53:29.204Z,66.89
2019-03-13T12:54:29.191Z,66.89
2019-03-13T12:55:29.181Z,66.76
2019-03-13T12:56:30.255Z,67.10
2019-03-13T12:57:29.179Z,67.41
2019-03-13T12:58:29.152Z,67.27
2019-03-13T12:59:29.146Z,67.38
2019-03-13T13:00:29.135Z,67.27
2019-03-13T13:01:29.118Z,66.89
2019-03-13T13:02:29.134Z,66.86
2019-03-13T13:03:29.097Z,66.69
2019-03-13T13:04:29.089Z,66.66
2019-03-13T13:05:29.074Z,66.45
2019-03-13T13:06:29.061Z,66.66
2019-03-13T13:07:29.077Z,66.66
2019-03-13T13:08:29.051Z,67.30
2019-03-13T13:09:29.045Z,67.07
2019-03-13T13:10:29.017Z,66.89
2019-03-13T13:11:29.010Z,66.86
2019-03-13T13:12:29.019Z,66.76
2019-03-13T13:13:28.991Z,67.27
2019-03-13T13:14:29.026Z,67.48
2019-03-13T13:15:28.970Z,67.89
2019-03-13T13:16:28.953Z,68.13
2019-03-13T13:17:28.977Z,67.71
2019-03-13T13:18:28.935Z,67.92
2019-03-13T13:19:28.922Z,68.13
2019-03-13T13:20:28.925Z,67.89
2019-03-13T13:21:28.915Z,67.92
2019-03-13T13:22:28.949Z,67.99
2019-03-13T13:23:28.916Z,69.05
2019-03-13T13:24:28.868Z,68.85
2019-03-13T13:25:28.861Z,69.05
2019-03-13T13:26:28.872Z,68.95
2019-03-13T13:27:28.885Z,69.15
2019-03-13T13:28:28.825Z,69.98
2019-03-13T13:29:28.818Z,69.36
2019-03-13T13:30:28.805Z,69.29
2019-03-13T13:31:28.803Z,69.39
2019-03-13T13:32:28.836Z,70.28
2019-03-13T13:33:28.775Z,70.39
2019-03-13T13:34:28.763Z,70.90
2019-03-13T13:35:28.826Z,70.83
2019-03-13T13:36:28.743Z,71.04
2019-03-13T13:37:28.750Z,72.06
2019-03-13T13:38:28.727Z,71.66
2019-03-13T13:39:28.713Z,71.45
2019-03-13T13:40:28.702Z,71.66
2019-03-13T13:41:28.686Z,71.96
2019-03-13T13:42:28.710Z,71.55
2019-03-13T13:43:28.667Z,71.86
2019-03-13T13:44:28.659Z,71.66
2019-03-13T13:45:28.646Z,71.24
2019-03-13T13:46:28.638Z,70.94
2019-03-13T13:47:28.625Z,71.04
2019-03-13T13:48:28.641Z,71.55
2019-03-13T13:49:28.604Z,71.14
2019-03-13T13:50:28.609Z,71.04
2019-03-13T13:51:28.593Z,70.52
2019-03-13T13:52:28.571Z,70.52
2019-03-13T13:53:28.580Z,70.21
2019-03-13T13:54:28.557Z,70.62
2019-03-13T13:55:28.539Z,70.73
2019-03-13T13:56:28.528Z,70.73
2019-03-13T13:57:28.522Z,70.79
2019-03-13T13:58:28.780Z,70.73
2019-03-13T13:59:28.495Z,70.21
2019-03-13T14:00:28.495Z,70.62
2019-03-13T14:01:28.487Z,70.62
2019-03-13T14:02:28.469Z,70.83
2019-03-13T14:03:28.479Z,69.87
2019-03-13T14:04:28.441Z,70.59
2019-03-13T14:05:28.430Z,70.59
2019-03-13T14:06:28.430Z,71.21
2019-03-13T14:07:28.411Z,70.79
2019-03-13T14:08:28.418Z,70.46
2019-03-13T14:09:28.389Z,70.59
2019-03-13T14:10:28.380Z,70.90
2019-03-13T14:11:28.379Z,70.70
2019-03-13T14:12:28.365Z,70.08
2019-03-13T14:13:28.379Z,70.36
2019-03-13T14:14:28.333Z,70.59
2019-03-13T14:15:28.336Z,70.18
2019-03-13T14:16:28.313Z,70.59
2019-03-13T14:17:28.302Z,71.11
2019-03-13T14:18:28.317Z,70.94
2019-03-13T14:19:28.282Z,71.00
2019-03-13T14:20:28.274Z,71.31
2019-03-13T14:21:28.259Z,71.31
2019-03-13T14:22:28.249Z,70.56
2019-03-13T14:23:28.263Z,70.15
2019-03-13T14:24:28.229Z,70.36
2019-03-13T14:25:28.224Z,70.87
2019-03-13T14:26:28.209Z,70.46
2019-03-13T14:27:28.195Z,70.90
2019-03-13T14:28:28.211Z,70.36
2019-03-13T14:29:28.182Z,70.36
2019-03-13T14:30:28.265Z,70.04
2019-03-13T14:31:28.153Z,70.25
2019-03-13T14:32:28.144Z,71.41
2019-03-13T14:33:28.152Z,71.41
2019-03-13T14:34:28.122Z,71.08
2019-03-13T14:35:28.135Z,70.97
2019-03-13T14:36:28.126Z,70.56
2019-03-13T14:37:28.089Z,70.66
2019-03-13T14:38:28.100Z,71.59
2019-03-13T14:39:28.077Z,71.08
2019-03-13T14:40:28.089Z,71.48
2019-03-13T14:41:28.047Z,71.69
2019-03-13T14:42:28.051Z,71.45
2019-03-13T14:43:28.044Z,70.97
2019-03-13T14:44:28.017Z,71.45
2019-03-13T14:45:28.006Z,71.55
2019-03-13T14:46:27.992Z,71.48
2019-03-13T14:47:27.982Z,71.48
2019-03-13T14:48:28.011Z,71.59
2019-03-13T14:49:27.962Z,71.14
2019-03-13T14:50:27.952Z,70.73
2019-03-13T14:51:27.943Z,70.12
2019-03-13T14:52:27.933Z,70.22
2019-03-13T14:53:27.939Z,70.01
2019-03-13T14:54:27.913Z,70.12
2019-03-13T14:55:27.906Z,70.12
2019-03-13T14:56:27.887Z,70.53
2019-03-13T14:57:27.890Z,70.22
2019-03-13T14:58:27.890Z,70.12
2019-03-13T14:59:27.856Z,69.60
2019-03-13T15:00:27.842Z,70.01
2019-03-13T15:01:27.918Z,69.09
2019-03-13T15:02:27.824Z,70.32
2019-03-13T15:03:27.845Z,69.81
2019-03-13T15:04:27.798Z,70.01
2019-03-13T15:05:27.791Z,69.70
2019-03-13T15:06:27.778Z,70.42
2019-03-13T15:07:27.772Z,70.04
2019-03-13T15:08:27.804Z,70.42
2019-03-13T15:09:27.745Z,70.94
2019-03-13T15:10:27.735Z,70.97
2019-03-13T15:11:27.724Z,71.17
2019-03-13T15:12:27.714Z,71.48
2019-03-13T15:13:27.728Z,71.04
2019-03-13T15:14:27.695Z,71.08
2019-03-13T15:15:27.686Z,70.97
2019-03-13T15:16:27.671Z,71.28
2019-03-13T15:17:27.660Z,71.79
2019-03-13T15:18:27.667Z,72.06
2019-03-13T15:19:27.712Z,72.31
2019-03-13T15:20:27.690Z,73.95
2019-03-13T15:21:27.628Z,75.38
2019-03-13T15:22:27.606Z,75.93
2019-03-13T15:23:27.618Z,76.69
2019-03-13T15:24:27.591Z,78.40
2019-03-13T15:25:27.599Z,78.33
2019-03-13T15:26:27.778Z,78.64
2019-03-13T15:27:27.558Z,78.54
2019-03-13T15:28:27.542Z,78.33
2019-03-13T15:29:27.559Z,78.13
2019-03-13T15:30:27.523Z,79.09
2019-03-13T15:31:27.537Z,79.05
2019-03-13T15:32:27.545Z,78.68
2019-03-13T15:33:27.518Z,79.23
2019-03-13T15:34:27.503Z,78.99
2019-03-13T15:35:27.498Z,79.09
2019-03-13T15:36:27.488Z,78.68
2019-03-13T15:37:27.473Z,78.47
2019-03-13T15:38:27.439Z,78.27
2019-03-13T15:39:27.445Z,78.06
2019-03-13T15:40:27.425Z,78.17
2019-03-13T15:41:27.404Z,78.23
2019-03-13T15:42:27.409Z,78.03
2019-03-13T15:43:27.423Z,77.65
2019-03-13T15:44:27.392Z,77.72
2019-03-13T15:45:27.363Z,77.45
2019-03-13T15:46:27.350Z,77.55
2019-03-13T15:47:27.341Z,78.47
2019-03-13T15:48:27.331Z,78.27
2019-03-13T15:49:27.352Z,76.59
2019-03-13T15:50:27.425Z,76.01
2019-03-13T15:51:27.305Z,75.35
2019-03-13T15:52:27.290Z,75.46
2019-03-13T15:53:27.286Z,75.35
2019-03-13T15:54:27.289Z,74.22
2019-03-13T15:55:27.254Z,74.63
2019-03-13T15:56:27.255Z,74.33
2019-03-13T15:57:27.237Z,73.91
2019-03-13T15:58:27.225Z,74.12
2019-03-13T15:59:27.233Z,73.61
2019-03-13T16:00:27.204Z,73.71
2019-03-13T16:01:27.193Z,74.53
2019-03-13T16:02:27.179Z,74.33
2019-03-13T16:03:27.171Z,75.04
2019-03-13T16:04:27.178Z,75.35
2019-03-13T16:05:27.146Z,75.35
2019-03-13T16:06:27.289Z,75.15
2019-03-13T16:07:27.129Z,75.25
2019-03-13T16:08:27.283Z,75.04
2019-03-13T16:09:27.253Z,75.67
2019-03-13T16:10:27.134Z,74.95
2019-03-13T16:11:27.084Z,74.43
2019-03-13T16:12:27.073Z,74.33
2019-03-13T16:13:27.062Z,74.12
2019-03-13T16:14:27.084Z,74.43
2019-03-13T16:15:27.045Z,74.63
2019-03-13T16:16:27.031Z,74.95
2019-03-13T16:17:27.032Z,73.71
2019-03-13T16:18:27.010Z,73.40
2019-03-13T16:19:27.018Z,73.30
2019-03-13T16:20:26.989Z,73.09
2019-03-13T16:21:26.997Z,73.19
2019-03-13T16:22:26.972Z,73.81
2019-03-13T16:23:26.960Z,73.57
2019-03-13T16:24:26.983Z,73.61
2019-03-13T16:25:26.935Z,73.81
2019-03-13T16:26:26.944Z,74.40
2019-03-13T16:27:26.991Z,76.48
2019-03-13T16:28:26.902Z,76.38
2019-03-13T16:29:26.911Z,77.10
2019-03-13T16:30:26.942Z,77.41
2019-03-13T16:31:26.872Z,78.44
2019-03-13T16:32:26.862Z,77.96
2019-03-13T16:33:26.877Z,78.58
2019-03-13T16:34:26.858Z,78.10
2019-03-13T16:35:26.832Z,78.55
2019-03-13T16:36:26.828Z,78.28
2019-03-13T16:37:26.807Z,79.38
2019-03-13T16:38:26.799Z,79.17
2019-03-13T16:39:26.813Z,79.93
2019-03-13T16:40:26.777Z,81.62
2019-03-13T16:41:26.765Z,81.93
2019-03-13T16:42:26.854Z,81.21
2019-03-13T16:43:26.748Z,81.76
2019-03-13T16:44:26.756Z,82.17
2019-03-13T16:45:26.924Z,82.17
2019-03-13T16:46:26.720Z,82.83
2019-03-13T16:47:26.709Z,83.04
2019-03-13T16:48:26.708Z,82.42
2019-03-13T16:49:26.705Z,82.69
2019-03-13T16:50:26.701Z,83.41
2019-03-13T16:51:26.665Z,83.78
2019-03-13T16:52:26.682Z,83.06
2019-03-13T16:53:26.648Z,82.75
2019-03-13T16:54:26.653Z,82.75
2019-03-13T16:55:26.627Z,84.23
2019-03-13T16:56:26.614Z,83.83
2019-03-13T16:57:26.606Z,83.68
2019-03-13T16:58:26.611Z,83.27
2019-03-13T16:59:26.607Z,82.65
2019-03-13T17:00:26.573Z,82.24
2019-03-13T17:01:26.564Z,82.45
2019-03-13T17:02:26.572Z,82.65
2019-03-13T17:03:26.541Z,82.65
2019-03-13T17:04:26.574Z,82.24
2019-03-13T17:05:26.522Z,83.48
2019-03-13T17:06:26.510Z,82.55
2019-03-13T17:07:26.506Z,82.65
2019-03-13T17:08:26.494Z,82.55
2019-03-13T17:09:26.512Z,82.14
2019-03-13T17:10:26.481Z,82.96
2019-03-13T17:11:26.462Z,81.72
2019-03-13T17:12:26.451Z,80.48
2019-03-13T17:13:26.452Z,80.90
2019-03-13T17:14:26.436Z,80.79
2019-03-13T17:15:26.442Z,81.10
2019-03-13T17:16:26.425Z,81.62
2019-03-13T17:17:26.411Z,81.17
2019-03-13T17:18:26.402Z,80.79
2019-03-13T17:19:26.382Z,80.28
2019-03-13T17:20:26.629Z,80.69
2019-03-13T17:21:26.361Z,80.07
2019-03-13T17:22:26.368Z,79.86
2019-03-13T17:23:26.408Z,79.86
2019-03-13T17:24:26.338Z,79.86
2019-03-13T17:25:26.340Z,79.86
2019-03-13T17:26:26.309Z,79.86
2019-03-13T17:27:26.299Z,80.38
2019-03-13T17:28:26.291Z,80.04
2019-03-13T17:29:26.280Z,80.79
2019-03-13T17:30:26.300Z,81.27
2019-03-13T17:31:26.267Z,80.55
2019-03-13T17:32:26.245Z,80.55
2019-03-13T17:33:26.237Z,80.86
2019-03-13T17:34:26.230Z,81.17
2019-03-13T17:35:26.235Z,81.58
2019-03-13T17:36:26.205Z,80.76
2019-03-13T17:37:26.196Z,80.86
2019-03-13T17:38:26.190Z,80.96
2019-03-13T17:39:26.191Z,80.65
2019-03-13T17:40:26.186Z,80.65
2019-03-13T17:41:26.168Z,80.96
2019-03-13T17:42:26.147Z,81.58
2019-03-13T17:43:38.410Z,82.30
2019-03-13T17:44:27.126Z,82.30
2019-03-13T17:45:26.136Z,82.20
2019-03-13T17:46:26.104Z,82.40
2019-03-13T17:47:26.112Z,82.92
2019-03-13T17:48:26.084Z,83.64
2019-03-13T17:49:26.073Z,83.13
2019-03-13T17:50:26.088Z,83.23
2019-03-13T17:51:26.057Z,83.54
2019-03-13T17:52:26.043Z,83.64
2019-03-13T17:53:26.044Z,83.64
2019-03-13T17:54:26.030Z,83.95
2019-03-13T17:55:26.037Z,83.75
2019-03-13T17:56:26.007Z,83.85
2019-03-13T17:57:25.992Z,83.75
2019-03-13T17:58:25.985Z,83.23
2019-03-13T17:59:25.992Z,83.13
2019-03-13T18:00:25.989Z,82.61
2019-03-13T18:01:25.960Z,83.03
2019-03-13T18:02:25.943Z,82.68
2019-03-13T18:03:25.950Z,82.37
2019-03-13T18:04:25.920Z,82.89
2019-03-13T18:05:25.944Z,82.78
2019-03-13T18:06:25.946Z,81.96
2019-03-13T18:07:25.893Z,81.75
2019-03-13T18:08:25.881Z,81.75
2019-03-13T18:09:25.876Z,81.13
2019-03-13T18:10:25.880Z,81.51
2019-03-13T18:11:26.134Z,81.40
2019-03-13T18:12:25.840Z,81.30
2019-03-13T18:13:25.831Z,80.79
2019-03-13T18:14:29.393Z,80.79
2019-03-13T18:15:26.830Z,80.99
2019-03-13T18:16:25.800Z,80.99
2019-03-13T18:17:25.793Z,79.86
2019-03-13T18:18:25.785Z,80.16
2019-03-13T18:19:25.769Z,80.16
2019-03-13T18:20:25.783Z,80.37
2019-03-13T18:21:25.759Z,80.37
2019-03-13T18:22:25.740Z,80.68
2019-03-13T18:23:25.728Z,80.47
2019-03-13T18:24:25.950Z,80.89
2019-03-13T18:25:25.726Z,81.71
2019-03-13T18:26:25.700Z,81.20
2019-03-13T18:27:25.702Z,81.51
2019-03-13T18:28:25.676Z,81.51
2019-03-13T18:29:25.674Z,81.61
2019-03-13T18:30:25.692Z,81.65
2019-03-13T18:31:25.650Z,81.61
2019-03-13T18:32:25.636Z,81.81
2019-03-13T18:33:25.625Z,82.06
2019-03-13T18:34:25.617Z,82.47
2019-03-13T18:35:25.638Z,82.37
2019-03-13T18:36:25.596Z,82.37
2019-03-13T18:37:25.586Z,82.68
2019-03-13T18:38:25.588Z,82.43
2019-03-13T18:39:25.575Z,82.84
2019-03-13T18:40:25.582Z,83.05
2019-03-13T18:41:25.553Z,82.54
2019-03-13T18:42:25.540Z,82.78
2019-03-13T18:43:25.534Z,82.68
2019-03-13T18:44:25.516Z,82.89
2019-03-13T18:45:25.522Z,82.57
2019-03-13T18:46:25.496Z,83.09
2019-03-13T18:47:25.490Z,82.78
2019-03-13T18:48:25.477Z,83.50
2019-03-13T18:49:25.472Z,83.87
2019-03-13T18:50:25.492Z,83.81
2019-03-13T18:51:25.442Z,84.01
2019-03-13T18:52:25.431Z,82.84
2019-03-13T18:53:25.428Z,82.78
2019-03-13T18:54:25.414Z,82.06
2019-03-13T18:55:25.405Z,82.26
2019-03-13T18:56:25.414Z,82.57
2019-03-13T18:57:25.382Z,82.98
2019-03-13T18:58:25.371Z,82.89
2019-03-13T18:59:25.374Z,82.98
2019-03-13T19:00:25.351Z,83.71
2019-03-13T19:01:25.360Z,82.78
2019-03-13T19:02:25.349Z,82.98
2019-03-13T19:03:25.319Z,82.68
2019-03-13T19:04:25.315Z,82.26
2019-03-13T19:05:25.309Z,82.06
2019-03-13T19:06:25.320Z,82.06
2019-03-13T19:07:25.280Z,81.75
2019-03-13T19:08:27.138Z,80.72
2019-03-13T19:09:25.261Z,80.62
2019-03-13T19:10:25.249Z,80.62
2019-03-13T19:11:25.276Z,80.30
2019-03-13T19:12:25.230Z,80.51
2019-03-13T19:13:25.223Z,80.20
2019-03-13T19:14:25.210Z,80.20
2019-03-13T19:15:25.197Z,81.07
2019-03-13T19:16:25.233Z,81.17
2019-03-13T19:17:25.190Z,81.37
2019-03-13T19:18:25.165Z,82.10
2019-03-13T19:19:25.157Z,81.79
2019-03-13T19:20:25.148Z,81.07
2019-03-13T19:21:25.152Z,81.17
2019-03-13T19:22:25.140Z,80.55
2019-03-13T19:23:25.124Z,80.86
2019-03-13T19:24:25.103Z,80.76
2019-03-13T19:25:25.095Z,81.37
2019-03-13T19:26:25.103Z,80.93
2019-03-13T19:27:26.013Z,81.07
2019-03-13T19:28:25.065Z,81.44
2019-03-13T19:29:25.060Z,81.37
2019-03-13T19:30:25.048Z,81.68
2019-03-13T19:31:25.070Z,81.65
2019-03-13T19:32:25.024Z,81.96
2019-03-13T19:33:25.019Z,81.75
2019-03-13T19:34:25.000Z,81.65
2019-03-13T19:35:25.022Z,82.68
2019-03-13T19:36:24.996Z,82.02
2019-03-13T19:37:27.806Z,82.43
2019-03-13T19:38:24.959Z,82.64
2019-03-13T19:39:24.954Z,82.64
2019-03-13T19:40:24.938Z,82.06
2019-03-13T19:41:24.967Z,82.43
2019-03-13T19:42:24.917Z,82.54
2019-03-13T19:43:24.915Z,81.51
2019-03-13T19:44:24.942Z,81.40
2019-03-13T19:45:24.893Z,80.89
2019-03-13T19:46:24.902Z,80.06
2019-03-13T19:47:24.867Z,80.16
2019-03-13T19:48:24.881Z,80.47
2019-03-13T19:49:24.847Z,80.99
2019-03-13T19:50:27.917Z,80.68
2019-03-13T19:51:24.847Z,81.09
2019-03-13T19:52:24.822Z,81.44
2019-03-13T19:53:24.807Z,81.65
2019-03-13T19:54:24.812Z,81.65
2019-03-13T19:55:24.786Z,81.03
2019-03-13T19:56:24.807Z,80.41
2019-03-13T19:57:24.768Z,80.76
2019-03-13T19:58:24.771Z,81.58
2019-03-13T19:59:24.784Z,81.68
2019-03-13T20:00:24.734Z,81.54
2019-03-13T20:01:24.822Z,81.89
2019-03-13T20:02:24.712Z,81.68
2019-03-13T20:03:24.703Z,81.79
2019-03-13T20:04:24.790Z,81.48
2019-03-13T20:05:24.681Z,81.89
2019-03-13T20:06:24.692Z,81.68
2019-03-13T20:07:24.662Z,81.89
2019-03-13T20:08:24.664Z,81.58
2019-03-13T20:09:24.714Z,81.99